Time;durP1;ratioP1;P1;durP2;ratioP2;P2;SDS_P1;SDS_P2;PMS_P1;PMS_P2;Temp;Humidity;BMP_temperature;BMP_pressure;BME280_temperature;BME280_humidity;BME280_pressure;Samples;Min_cycle;Max_cycle;Signal;HPM_P1;HPM_P2
2024/03/12 00:00:40;;;;;;;48.05;20.30;;;12.20;99.90;;;;;;7379147;19;20044;-76
2024/03/12 00:03:12;;;;;;;43.42;19.85;;;12.30;99.90;;;;;;7398327;19;20101;-75
2024/03/12 00:05:43;;;;;;;50.08;21.27;;;12.20;99.90;;;;;;7377041;19;20055;-75
2024/03/12 00:08:14;;;;;;;44.75;21.40;;;12.30;99.90;;;;;;7384263;19;20028;-76
2024/03/12 00:10:43;;;;;;;47.73;21.33;;;12.20;99.90;;;;;;7383467;19;20030;-75
2024/03/12 00:13:11;;;;;;;42.78;20.50;;;12.30;99.90;;;;;;7384565;19;20019;-76
2024/03/12 00:15:41;;;;;;;52.40;21.40;;;12.30;99.90;;;;;;7384373;19;20036;-76
2024/03/12 00:18:12;;;;;;;46.78;20.98;;;12.40;99.90;;;;;;7405908;19;20006;-74
2024/03/12 00:20:43;;;;;;;47.05;20.40;;;12.30;99.90;;;;;;7383080;19;20023;-75
2024/03/12 00:23:11;;;;;;;50.17;21.67;;;12.40;99.90;;;;;;7383599;19;20401;-74
2024/03/12 00:25:40;;;;;;;44.70;19.55;;;12.40;99.90;;;;;;7384062;19;20346;-74
2024/03/12 00:28:09;;;;;;;44.17;21.42;;;12.40;99.90;;;;;;7383251;19;20268;-75
2024/03/12 00:30:40;;;;;;;61.63;20.77;;;12.40;99.90;;;;;;7381876;19;20010;-76
2024/03/12 00:33:12;;;;;;;46.03;19.88;;;12.40;99.90;;;;;;7406128;19;20040;-76
2024/03/12 00:35:43;;;;;;;53.50;20.45;;;12.50;99.90;;;;;;7382509;19;20003;-76
2024/03/12 00:38:12;;;;;;;50.85;19.80;;;12.40;99.90;;;;;;7382943;19;20028;-75
2024/03/12 00:40:42;;;;;;;39.88;19.88;;;12.50;99.90;;;;;;7383208;19;20015;-76
2024/03/12 00:43:11;;;;;;;40.42;19.20;;;12.60;99.90;;;;;;7383255;19;20007;-76
2024/03/12 00:45:41;;;;;;;47.72;19.35;;;12.50;99.90;;;;;;7383140;19;20066;-76
2024/03/12 00:48:13;;;;;;;42.38;19.15;;;12.50;99.90;;;;;;7404607;19;20011;-75
2024/03/12 00:50:42;;;;;;;46.28;18.58;;;12.50;99.90;;;;;;7381309;19;20062;-76
2024/03/12 00:53:11;;;;;;;41.25;19.98;;;12.50;99.90;;;;;;7382671;19;20757;-76
2024/03/12 00:55:40;;;;;;;55.63;17.85;;;12.50;99.90;;;;;;7386962;19;20010;-76
2024/03/12 00:58:10;;;;;;;42.83;18.90;;;12.50;99.90;;;;;;7381416;19;20230;-75
2024/03/12 01:00:39;;;;;;;38.58;17.75;;;12.50;99.90;;;;;;7382723;19;20007;-76
2024/03/12 01:03:11;;;;;;;36.85;17.42;;;12.50;99.90;;;;;;7403620;19;20289;-75
2024/03/12 01:05:42;;;;;;;45.58;17.60;;;12.40;99.90;;;;;;7381529;19;20032;-75
2024/03/12 01:08:11;;;;;;;42.33;16.95;;;12.40;99.90;;;;;;7382065;19;20007;-75
2024/03/12 01:10:40;;;;;;;32.95;16.02;;;12.50;99.90;;;;;;7381881;19;20077;-75
2024/03/12 01:13:09;;;;;;;39.40;17.80;;;12.50;99.90;;;;;;7382249;19;20003;-76
2024/03/12 01:15:38;;;;;;;33.25;15.82;;;12.60;99.90;;;;;;7381664;19;20003;-74
2024/03/12 01:18:07;;;;;;;39.17;15.32;;;12.60;99.90;;;;;;7403727;19;20015;-75
2024/03/12 01:20:39;;;;;;;36.58;15.15;;;12.60;99.90;;;;;;7381368;19;20046;-76
2024/03/12 01:23:08;;;;;;;36.80;16.42;;;12.60;99.90;;;;;;7381767;19;20006;-76
2024/03/12 01:25:37;;;;;;;39.65;17.17;;;12.60;99.90;;;;;;7381819;19;20007;-76
2024/03/12 01:28:10;;;;;;;35.05;15.48;;;12.60;99.90;;;;;;7381675;19;20006;-75
2024/03/12 01:30:39;;;;;;;43.42;16.75;;;12.70;99.90;;;;;;7381183;19;20280;-75
2024/03/12 01:33:08;;;;;;;48.20;16.33;;;12.70;99.90;;;;;;7403136;19;20013;-76
2024/03/12 01:35:39;;;;;;;37.95;16.50;;;12.70;99.90;;;;;;7380763;19;20334;-75
2024/03/12 01:38:08;;;;;;;;;;;12.70;99.90;;;;;;7382277;19;20019;-75
2024/03/12 01:40:37;;;;;;;33.20;16.05;;;12.80;99.90;;;;;;7381011;19;19931;-75
2024/03/12 01:43:06;;;;;;;33.25;15.07;;;12.80;99.90;;;;;;7381588;19;20362;-75
2024/03/12 01:45:36;;;;;;;42.30;15.00;;;12.80;99.90;;;;;;7381320;19;20074;-75
2024/03/12 01:48:07;;;;;;;35.83;15.68;;;12.80;99.90;;;;;;7402382;19;20015;-75
2024/03/12 01:50:40;;;;;;;33.53;15.80;;;12.80;99.90;;;;;;7379790;19;20003;-75
2024/03/12 01:53:10;;;;;;;35.50;15.90;;;12.80;99.90;;;;;;7380280;19;20014;-74
2024/03/12 01:55:42;;;;;;;32.38;15.82;;;12.80;99.90;;;;;;7381178;19;19999;-75
2024/03/12 01:58:10;;;;;;;36.28;16.17;;;12.80;99.90;;;;;;7380863;19;20010;-75
2024/03/12 02:00:39;;;;;;;33.08;16.38;;;12.80;99.90;;;;;;7380412;19;20067;-74
2024/03/12 02:03:09;;;;;;;32.65;15.38;;;12.70;99.90;;;;;;7402300;19;20017;-76
2024/03/12 02:05:40;;;;;;;41.90;16.08;;;12.70;99.90;;;;;;7379617;19;20003;-75
2024/03/12 02:08:09;;;;;;;34.45;15.15;;;12.60;99.90;;;;;;7379819;19;20002;-75
2024/03/12 02:10:38;;;;;;;36.00;15.05;;;12.60;99.90;;;;;;7379977;19;20018;-75
2024/03/12 02:13:07;;;;;;;32.95;15.07;;;12.50;99.90;;;;;;7380314;19;20003;-75
2024/03/12 02:15:36;;;;;;;28.73;14.40;;;12.50;99.90;;;;;;7380059;19;20075;-75
2024/03/12 02:18:02;;;;;;;35.20;15.55;;;12.50;99.90;;;;;;7400986;19;20018;-75
2024/03/12 02:20:31;;;;;;;31.60;14.32;;;12.40;99.90;;;;;;7378675;19;20003;-75
2024/03/12 02:23:03;;;;;;;36.83;15.20;;;12.40;99.90;;;;;;7379367;19;20002;-75
2024/03/12 02:25:35;;;;;;;31.15;14.82;;;12.40;99.90;;;;;;7379796;19;20024;-76
2024/03/12 02:28:04;;;;;;;35.75;15.40;;;12.40;99.90;;;;;;7379223;19;20024;-75
2024/03/12 02:30:33;;;;;;;34.65;14.80;;;12.50;99.90;;;;;;7378171;19;20062;-75
2024/03/12 02:33:04;;;;;;;33.97;14.57;;;12.50;99.90;;;;;;7398155;19;20003;-74
2024/03/12 02:35:34;;;;;;;34.47;14.27;;;12.40;99.90;;;;;;7378793;19;20003;-75
2024/03/12 02:38:02;;;;;;;33.85;14.20;;;12.40;99.90;;;;;;7379085;19;20070;-75
2024/03/12 02:40:34;;;;;;;32.92;14.52;;;12.30;99.90;;;;;;7379165;19;20087;-75
2024/03/12 02:43:02;;;;;;;27.58;14.10;;;12.30;99.90;;;;;;7379452;19;20016;-76
2024/03/12 02:45:31;;;;;;;27.65;13.68;;;12.20;99.90;;;;;;7377663;19;20011;-74
2024/03/12 02:48:00;;;;;;;30.08;14.55;;;12.20;99.90;;;;;;7400354;19;20011;-75
2024/03/12 02:50:29;;;;;;;28.63;14.57;;;12.30;99.90;;;;;;7378105;19;20011;-75
2024/03/12 02:52:58;;;;;;;28.30;14.80;;;12.30;99.90;;;;;;7378047;19;20006;-75
2024/03/12 02:55:27;;;;;;;32.63;15.23;;;12.40;99.90;;;;;;7380592;19;19999;-75
2024/03/12 02:57:58;;;;;;;36.30;15.27;;;12.40;99.90;;;;;;7381316;19;20006;-75
2024/03/12 03:00:28;;;;;;;26.98;13.68;;;12.40;99.90;;;;;;7403712;19;20011;-75
2024/03/12 03:02:57;;;;;;;31.63;14.57;;;12.30;99.90;;;;;;7380898;19;20023;-75
2024/03/12 03:05:28;;;;;;;29.75;14.80;;;12.30;99.90;;;;;;7380588;19;20010;-75
2024/03/12 03:07:56;;;;;;;27.13;14.43;;;12.30;99.90;;;;;;7379630;19;20007;-75
2024/03/12 03:10:25;;;;;;;33.00;15.68;;;12.30;99.90;;;;;;7378635;19;20019;-75
2024/03/12 03:12:59;;;;;;;34.80;15.23;;;12.30;99.90;;;;;;7376301;19;20007;-75
2024/03/12 03:15:28;;;;;;;33.28;15.30;;;12.30;99.90;;;;;;7400320;19;20070;-74
2024/03/12 03:17:56;;;;;;;32.53;14.68;;;12.30;99.90;;;;;;7377439;19;20026;-75
2024/03/12 03:20:25;;;;;;;32.50;14.82;;;12.30;99.90;;;;;;7376996;19;20003;-75
2024/03/12 03:22:54;;;;;;;32.53;14.95;;;12.40;99.90;;;;;;7377967;19;20028;-76
2024/03/12 03:25:23;;;;;;;32.45;15.15;;;12.50;99.90;;;;;;7377859;19;20014;-75
2024/03/12 03:27:51;;;;;;;30.35;15.07;;;12.50;99.90;;;;;;7378001;19;20031;-74
2024/03/12 03:30:23;;;;;;;26.83;14.13;;;12.60;99.90;;;;;;7399304;19;20102;-77
2024/03/12 03:32:51;;;;;;;31.27;15.43;;;12.60;99.90;;;;;;7375099;19;20410;-75
2024/03/12 03:35:20;;;;;;;36.35;15.48;;;12.60;99.90;;;;;;7377459;19;20002;-76
2024/03/12 03:37:49;;;;;;;34.17;15.68;;;12.60;99.90;;;;;;7376819;19;20682;-75
2024/03/12 03:40:25;;;;;;;33.80;15.73;;;12.60;99.90;;;;;;7374728;19;20028;-76
2024/03/12 03:42:56;;;;;;;31.30;14.57;;;12.60;99.90;;;;;;7376785;19;20354;-75
2024/03/12 03:45:27;;;;;;;36.53;16.17;;;12.70;99.90;;;;;;7398969;19;20014;-76
2024/03/12 03:47:56;;;;;;;31.83;15.23;;;12.70;99.90;;;;;;7376272;19;20369;-76
2024/03/12 03:50:24;;;;;;;31.77;15.43;;;12.70;99.90;;;;;;7376702;19;20099;-76
2024/03/12 03:52:53;;;;;;;27.77;14.18;;;12.70;99.90;;;;;;7377599;19;20717;-77
2024/03/12 03:55:23;;;;;;;40.67;15.15;;;12.70;99.90;;;;;;7378008;19;20006;-76
2024/03/12 03:57:52;;;;;;;29.17;14.77;;;12.70;99.90;;;;;;7376755;19;20214;-76
2024/03/12 04:00:28;;;;;;;29.00;14.55;;;12.70;99.90;;;;;;7395759;19;20579;-75
2024/03/12 04:02:59;;;;;;;39.30;15.15;;;12.60;99.90;;;;;;7376685;19;20007;-75
2024/03/12 04:05:28;;;;;;;31.27;15.02;;;12.60;99.90;;;;;;7377109;19;20024;-75
2024/03/12 04:07:56;;;;;;;31.90;15.00;;;12.60;99.90;;;;;;7375712;19;20003;-77
2024/03/12 04:10:25;;;;;;;26.23;14.45;;;12.60;99.90;;;;;;7376701;19;20082;-75
2024/03/12 04:12:55;;;;;;;30.65;15.23;;;12.60;99.90;;;;;;7375035;19;20003;-75
2024/03/12 04:15:28;;;;;;;32.40;15.50;;;12.70;99.90;;;;;;7398093;19;20007;-75
2024/03/12 04:17:59;;;;;;;31.67;14.98;;;12.70;99.90;;;;;;7375502;19;20256;-76
2024/03/12 04:20:28;;;;;;;32.17;15.25;;;12.70;99.90;;;;;;7375639;19;20019;-75
2024/03/12 04:22:57;;;;;;;28.15;14.23;;;12.70;99.90;;;;;;7376227;19;20021;-75
2024/03/12 04:25:26;;;;;;;29.80;15.82;;;12.70;99.90;;;;;;7375957;19;20007;-75
2024/03/12 04:27:55;;;;;;;41.00;14.50;;;12.70;99.90;;;;;;7374753;19;20403;-75
2024/03/12 04:30:25;;;;;;;35.40;14.65;;;12.70;99.90;;;;;;7397315;19;20010;-75
2024/03/12 04:32:53;;;;;;;28.70;13.75;;;12.60;99.90;;;;;;7373544;19;20020;-75
2024/03/12 04:35:26;;;;;;;37.63;14.93;;;12.70;99.90;;;;;;7375278;19;20434;-75
2024/03/12 04:37:55;;;;;;;30.10;13.05;;;12.70;99.90;;;;;;7375866;19;20042;-75
2024/03/12 04:40:24;;;;;;;30.75;14.32;;;12.70;99.90;;;;;;7375338;19;20002;-75
2024/03/12 04:42:53;;;;;;;27.52;13.30;;;12.70;99.90;;;;;;7375474;19;20015;-75
2024/03/12 04:45:24;;;;;;;31.15;13.95;;;12.70;99.90;;;;;;7396830;19;20002;-75
2024/03/12 04:47:53;;;;;;;30.40;13.55;;;12.70;99.90;;;;;;7374876;19;20037;-75
2024/03/12 04:50:25;;;;;;;26.13;13.80;;;12.70;99.90;;;;;;7373737;19;20007;-75
2024/03/12 04:52:53;;;;;;;;;;;12.70;99.90;;;;;;7379491;19;20026;-76
2024/03/12 04:55:23;;;;;;;30.23;13.80;;;12.70;99.90;;;;;;7382321;19;19928;-75
2024/03/12 04:57:52;;;;;;;27.27;14.85;;;12.70;99.90;;;;;;7382930;19;20076;-76
2024/03/12 05:00:22;;;;;;;34.97;14.55;;;12.70;99.90;;;;;;7403338;19;20520;-76
2024/03/12 05:02:52;;;;;;;30.92;14.48;;;12.70;99.90;;;;;;7381624;19;20072;-77
2024/03/12 05:05:21;;;;;;;28.73;14.63;;;12.70;99.90;;;;;;7381752;19;20218;-75
2024/03/12 05:07:53;;;;;;;29.23;14.32;;;12.70;99.90;;;;;;7381775;19;20031;-76
2024/03/12 05:10:24;;;;;;;34.15;13.82;;;12.70;99.90;;;;;;7382376;19;20018;-75
2024/03/12 05:12:53;;;;;;;35.47;14.18;;;12.70;99.90;;;;;;7379369;19;20003;-76
2024/03/12 05:15:24;;;;;;;28.45;13.65;;;12.70;99.90;;;;;;7402555;19;20031;-75
2024/03/12 05:17:53;;;;;;;32.90;12.75;;;12.60;99.90;;;;;;7380644;19;20006;-76
2024/03/12 05:20:25;;;;;;;33.72;14.23;;;12.60;99.90;;;;;;7381339;19;20358;-75
2024/03/12 05:22:58;;;;;;;27.25;12.80;;;12.60;99.90;;;;;;7381094;19;20024;-75
2024/03/12 05:25:38;;;;;;;31.58;13.80;;;12.50;99.90;;;;;;7381247;19;20238;-76
2024/03/12 05:28:08;;;;;;;27.42;13.07;;;12.50;99.90;;;;;;7379310;19;20010;-75
2024/03/12 05:30:40;;;;;;;27.88;12.95;;;12.50;99.90;;;;;;7403533;19;20010;-75
2024/03/12 05:33:14;;;;;;;45.03;14.20;;;12.50;99.90;;;;;;7378665;19;20002;-76
2024/03/12 05:35:51;;;;;;;28.50;13.38;;;12.50;99.90;;;;;;7380439;19;20027;-76
2024/03/12 05:38:33;;;;;;;28.90;14.25;;;12.50;99.90;;;;;;7381224;19;20010;-76
2024/03/12 05:41:25;;;;;;;31.30;12.82;;;12.40;99.90;;;;;;7380998;19;20007;-76
2024/03/12 05:49:19;;;;;;;28.35;12.75;;;12.30;99.90;;;;;;7381464;19;20014;-76
2024/03/12 05:51:48;;;;;;;28.65;13.00;;;12.20;99.90;;;;;;7381448;19;20027;-75
2024/03/12 05:54:19;;;;;;;25.10;13.95;;;12.20;99.90;;;;;;7403272;19;20031;-75
2024/03/12 05:56:49;;;;;;;29.13;13.15;;;12.20;99.90;;;;;;7382187;19;20007;-75
2024/03/12 05:59:19;;;;;;;30.55;13.57;;;12.20;99.90;;;;;;7382569;19;20006;-75
2024/03/12 06:01:48;;;;;;;31.25;13.25;;;12.20;99.90;;;;;;7382654;19;20108;-75
2024/03/12 06:04:16;;;;;;;27.95;12.25;;;12.20;99.90;;;;;;7381473;19;20011;-76
2024/03/12 06:06:45;;;;;;;35.15;13.90;;;12.20;99.90;;;;;;7382884;19;20019;-75
2024/03/12 06:09:14;;;;;;;28.27;13.57;;;12.30;99.90;;;;;;7403170;19;20332;-75
2024/03/12 06:11:45;;;;;;;32.83;13.30;;;12.30;99.90;;;;;;7379354;19;20115;-74
2024/03/12 06:14:16;;;;;;;29.17;12.93;;;12.20;99.90;;;;;;7379403;19;19999;-75
2024/03/12 06:16:46;;;;;;;28.85;13.27;;;12.30;99.90;;;;;;7379400;19;20007;-74
2024/03/12 06:19:15;;;;;;;33.13;13.57;;;12.30;99.90;;;;;;7379909;19;20239;-75
2024/03/12 06:21:44;;;;;;;33.58;13.80;;;12.30;99.90;;;;;;7378997;19;20058;-75
2024/03/12 06:24:13;;;;;;;32.53;13.40;;;12.20;99.90;;;;;;7400616;19;20003;-75
2024/03/12 06:26:45;;;;;;;33.40;14.55;;;12.20;99.90;;;;;;7379096;19;20010;-75
2024/03/12 06:29:13;;;;;;;;;;;12.20;99.90;;;;;;7379468;19;20006;-76
2024/03/12 06:31:42;;;;;;;24.58;11.98;;;12.20;99.90;;;;;;7379448;19;20002;-75
2024/03/12 06:34:11;;;;;;;27.50;11.85;;;12.20;99.90;;;;;;7377741;19;20078;-75
2024/03/12 06:36:40;;;;;;;29.88;12.10;;;12.10;99.90;;;;;;7394365;19;20015;-76
2024/03/12 06:39:13;;;;;;;25.92;12.38;;;12.10;99.90;;;;;;7399987;19;20058;-75
2024/03/12 06:41:46;;;;;;;26.55;12.13;;;12.20;99.90;;;;;;7378138;19;20390;-74
2024/03/12 06:44:16;;;;;;;26.67;12.20;;;12.20;99.90;;;;;;7378777;19;20086;-75
2024/03/12 06:46:47;;;;;;;32.55;12.52;;;12.20;99.90;;;;;;7378828;19;20015;-76
2024/03/12 06:49:16;;;;;;;29.38;12.05;;;12.20;99.90;;;;;;7379279;19;20002;-75
2024/03/12 06:51:47;;;;;;;23.75;12.40;;;12.20;99.90;;;;;;7378545;19;20386;-75
2024/03/12 06:54:15;;;;;;;24.00;11.68;;;12.20;99.90;;;;;;7401723;19;20017;-75
2024/03/12 06:56:47;;;;;;;32.42;12.55;;;12.10;99.90;;;;;;7378097;19;20385;-75
2024/03/12 06:59:16;;;;;;;;;;;12.10;99.90;;;;;;7379230;19;20385;-76
2024/03/12 07:01:45;;;;;;;27.10;12.48;;;12.20;99.90;;;;;;7378048;19;20313;-74
2024/03/12 07:04:14;;;;;;;25.80;11.40;;;12.20;99.90;;;;;;7378228;19;20405;-76
2024/03/12 07:06:43;;;;;;;22.55;11.80;;;12.10;99.90;;;;;;7378773;19;20007;-75
2024/03/12 07:09:22;;;;;;;23.60;11.52;;;12.10;99.90;;;;;;7398917;19;20499;-75
2024/03/12 07:11:54;;;;;;;22.20;11.65;;;12.20;99.90;;;;;;7376926;19;20003;-75
2024/03/12 07:14:27;;;;;;;;;;;12.10;99.90;;;;;;7378195;19;20035;-75
2024/03/12 07:16:57;;;;;;;28.73;12.15;;;12.10;99.90;;;;;;7377072;19;19915;-75
2024/03/12 07:19:25;;;;;;;27.52;12.63;;;12.10;99.90;;;;;;7379071;19;20078;-77
2024/03/12 07:21:57;;;;;;;26.20;12.15;;;12.00;99.90;;;;;;7378150;19;20002;-76
2024/03/12 07:24:25;;;;;;;26.77;12.45;;;12.00;99.90;;;;;;7399236;19;20075;-77
2024/03/12 07:26:59;;;;;;;24.83;11.70;;;12.00;99.90;;;;;;7376716;19;20058;-76
2024/03/12 07:29:28;;;;;;;30.35;11.68;;;12.10;99.90;;;;;;7377127;19;20007;-77
2024/03/12 07:31:56;;;;;;;37.45;12.38;;;12.00;99.90;;;;;;7377606;19;20003;-75
2024/03/12 07:34:25;;;;;;;30.08;12.48;;;12.10;99.90;;;;;;7376031;19;20345;-76
2024/03/12 07:36:54;;;;;;;24.80;12.20;;;12.10;99.90;;;;;;7377433;19;20106;-75
2024/03/12 07:39:31;;;;;;;25.23;12.68;;;12.30;99.90;;;;;;7398907;19;20239;-74
2024/03/12 07:42:05;;;;;;;25.50;11.63;;;12.40;99.90;;;;;;7375943;19;20062;-75
2024/03/12 07:44:35;;;;;;;30.10;11.73;;;12.50;99.90;;;;;;7375991;19;20225;-76
2024/03/12 07:47:04;;;;;;;35.20;12.52;;;12.60;99.90;;;;;;7377127;19;20110;-75
2024/03/12 07:49:36;;;;;;;29.70;12.32;;;12.50;99.90;;;;;;7376442;19;20059;-75
2024/03/12 07:52:05;;;;;;;25.38;11.85;;;12.70;99.90;;;;;;7376807;19;20015;-76
2024/03/12 07:54:34;;;;;;;27.63;11.70;;;12.80;99.90;;;;;;7395805;19;20354;-76
2024/03/12 07:57:07;;;;;;;24.58;11.13;;;12.90;99.90;;;;;;7376022;19;20016;-76
2024/03/12 07:59:36;;;;;;;31.55;12.30;;;12.90;99.90;;;;;;7375917;19;20003;-76
2024/03/12 08:02:11;;;;;;;24.30;12.10;;;12.90;99.90;;;;;;7376242;19;20025;-76
2024/03/12 08:04:42;;;;;;;27.13;11.80;;;12.80;99.90;;;;;;7376294;19;20015;-76
2024/03/12 08:07:11;;;;;;;26.95;12.45;;;12.90;99.90;;;;;;7377066;19;20003;-74
2024/03/12 08:09:42;;;;;;;21.77;10.52;;;13.00;99.90;;;;;;7397550;19;20099;-75
2024/03/12 08:12:13;;;;;;;32.92;11.07;;;13.00;99.90;;;;;;7375905;19;20058;-74
2024/03/12 08:14:42;;;;;;;29.10;11.85;;;13.00;99.90;;;;;;7374891;19;20090;-74
2024/03/12 08:17:12;;;;;;;22.02;11.63;;;13.00;99.90;;;;;;7375526;19;20007;-74
2024/03/12 08:19:41;;;;;;;33.08;11.15;;;13.00;99.90;;;;;;7376181;19;20006;-74
2024/03/12 08:22:10;;;;;;;26.90;12.00;;;13.00;99.90;;;;;;7376141;19;20070;-73
2024/03/12 08:24:39;;;;;;;24.40;11.18;;;13.00;99.90;;;;;;7396980;19;19998;-74
2024/03/12 08:27:14;;;;;;;29.90;11.07;;;12.90;99.90;;;;;;7377181;19;20054;-74
2024/03/12 08:29:43;;;;;;;29.30;11.25;;;12.80;99.90;;;;;;7382353;19;20357;-73
2024/03/12 08:32:13;;;;;;;30.38;11.30;;;12.90;99.90;;;;;;7382673;19;20028;-76
2024/03/12 08:34:46;;;;;;;28.85;11.43;;;13.00;99.90;;;;;;7381193;19;20301;-76
2024/03/12 08:37:14;;;;;;;25.55;10.60;;;12.90;99.90;;;;;;7383122;19;20010;-75
2024/03/12 08:39:43;;;;;;;26.38;11.70;;;12.80;99.90;;;;;;7403852;19;20338;-76
2024/03/12 08:42:14;;;;;;;31.50;10.90;;;12.80;99.90;;;;;;7382260;19;20114;-75
2024/03/12 08:44:43;;;;;;;21.60;10.25;;;12.80;99.90;;;;;;7381226;19;20027;-76
2024/03/12 08:47:12;;;;;;;25.02;10.52;;;13.00;99.90;;;;;;7382614;19;20061;-75
2024/03/12 08:49:41;;;;;;;26.77;11.07;;;12.90;99.90;;;;;;7382051;19;20003;-74
2024/03/12 08:52:10;;;;;;;31.20;11.65;;;12.90;99.90;;;;;;7379821;19;20011;-76
2024/03/12 08:54:38;;;;;;;25.45;10.80;;;12.80;99.90;;;;;;7400742;19;20087;-75
2024/03/12 08:57:07;;;;;;;24.02;10.65;;;12.80;99.90;;;;;;7381824;19;20066;-75
2024/03/12 08:59:38;;;;;;;24.50;9.80;;;12.80;99.90;;;;;;7382723;19;20023;-76
2024/03/12 09:02:08;;;;;;;25.55;10.70;;;12.80;99.90;;;;;;7383571;19;20007;-75
2024/03/12 09:04:38;;;;;;;21.48;10.23;;;12.90;99.90;;;;;;7383165;19;20074;-73
2024/03/12 09:07:08;;;;;;;22.85;9.05;;;13.00;99.90;;;;;;7382832;19;20038;-73
2024/03/12 09:09:37;;;;;;;20.88;9.02;;;13.00;99.90;;;;;;7403800;19;20003;-73
2024/03/12 09:12:08;;;;;;;22.98;10.25;;;13.00;99.90;;;;;;7382040;19;20007;-74
2024/03/12 09:14:40;;;;;;;24.07;9.33;;;13.00;99.90;;;;;;7378728;19;20052;-73
2024/03/12 09:17:09;;;;;;;23.77;9.68;;;13.00;99.90;;;;;;7381130;19;20003;-74
2024/03/12 09:19:37;;;;;;;19.17;10.00;;;13.10;99.90;;;;;;7381541;19;20010;-74
2024/03/12 09:22:08;;;;;;;23.08;9.73;;;13.10;99.90;;;;;;7381549;19;20032;-74
2024/03/12 09:24:38;;;;;;;20.07;10.20;;;12.90;99.90;;;;;;7403327;19;20003;-74
2024/03/12 09:27:08;;;;;;;20.83;9.43;;;13.10;99.90;;;;;;7380415;19;20335;-74
2024/03/12 09:29:40;;;;;;;23.48;10.07;;;12.90;99.90;;;;;;7380606;19;20010;-73
2024/03/12 09:32:09;;;;;;;19.45;9.55;;;12.90;99.90;;;;;;7381282;19;20043;-78
2024/03/12 09:34:40;;;;;;;27.15;9.70;;;13.00;99.90;;;;;;7382282;19;20123;-77
2024/03/12 09:37:10;;;;;;;23.90;10.40;;;13.00;99.90;;;;;;7381642;19;20018;-77
2024/03/12 09:39:39;;;;;;;27.25;10.45;;;13.10;99.90;;;;;;7399634;19;20076;-76
2024/03/12 09:42:10;;;;;;;19.80;9.77;;;13.10;99.90;;;;;;7378507;19;20003;-76
2024/03/12 09:44:41;;;;;;;21.83;10.27;;;13.00;99.90;;;;;;7380135;19;20035;-76
2024/03/12 09:47:11;;;;;;;;;;;13.10;99.90;;;;;;7380947;19;20007;-75
2024/03/12 09:49:40;;;;;;;23.90;9.85;;;13.10;99.90;;;;;;7380050;19;19911;-76
2024/03/12 09:52:10;;;;;;;21.88;9.88;;;13.20;99.90;;;;;;7380455;19;20102;-75
2024/03/12 09:54:38;;;;;;;26.85;9.82;;;13.20;99.90;;;;;;7399746;19;20239;-76
2024/03/12 09:57:10;;;;;;;22.63;10.68;;;13.20;99.90;;;;;;7379896;19;20006;-77
2024/03/12 09:59:42;;;;;;;18.80;9.20;;;13.10;99.90;;;;;;7381673;19;20090;-76
2024/03/12 10:02:12;;;;;;;21.05;10.15;;;13.20;99.90;;;;;;7380520;19;20303;-74
2024/03/12 10:04:41;;;;;;;25.98;9.80;;;13.30;99.90;;;;;;7379343;19;20016;-75
2024/03/12 10:07:11;;;;;;;29.92;10.07;;;13.30;99.90;;;;;;7379825;19;20025;-75
2024/03/12 10:09:41;;;;;;;27.27;9.82;;;13.30;99.90;;;;;;7401231;19;20232;-75
2024/03/12 10:12:12;;;;;;;21.02;9.68;;;13.30;99.90;;;;;;7378720;19;20279;-73
2024/03/12 10:14:47;;;;;;;21.40;9.02;;;13.30;99.90;;;;;;7377815;19;20003;-75
2024/03/12 10:17:17;;;;;;;26.73;9.50;;;13.40;99.90;;;;;;7379431;19;20003;-74
2024/03/12 10:19:49;;;;;;;26.20;9.18;;;13.50;99.90;;;;;;7378123;19;20010;-76
2024/03/12 10:22:20;;;;;;;;;;;13.50;99.90;;;;;;7380690;19;20258;-75
2024/03/12 10:24:50;;;;;;;19.48;9.25;;;13.60;99.90;;;;;;7401902;19;20334;-76
2024/03/12 10:27:20;;;;;;;21.73;9.32;;;13.60;99.90;;;;;;7380091;19;20020;-75
2024/03/12 10:29:51;;;;;;;20.10;9.00;;;13.60;99.90;;;;;;7381200;19;20021;-74
2024/03/12 10:32:21;;;;;;;21.77;8.30;;;13.70;99.90;;;;;;7379572;19;20457;-77
2024/03/12 10:34:52;;;;;;;24.17;8.00;;;13.80;99.90;;;;;;7378475;19;20003;-76
2024/03/12 10:37:32;;;;;;;54.20;23.55;;;13.80;99.90;;;;;;7379324;19;20023;-76
2024/03/12 10:40:15;;;;;;;17.48;8.60;;;13.80;99.90;;;;;;7378899;19;20006;-77
2024/03/12 10:42:52;;;;;;;19.33;9.18;;;13.70;99.90;;;;;;7398890;19;20011;-75
2024/03/12 10:45:24;;;;;;;20.38;8.38;;;13.70;99.90;;;;;;7377814;19;20003;-75
2024/03/12 10:47:53;;;;;;;24.35;9.20;;;13.70;99.90;;;;;;7378095;19;20002;-76
2024/03/12 10:50:24;;;;;;;19.08;9.05;;;13.70;99.90;;;;;;7377461;19;20007;-75
2024/03/12 10:52:54;;;;;;;21.88;8.93;;;13.70;99.90;;;;;;7376938;19;20286;-77
2024/03/12 10:55:23;;;;;;;26.92;9.50;;;13.80;99.90;;;;;;7377416;19;20043;-77
2024/03/12 10:57:53;;;;;;;21.75;9.07;;;13.80;99.90;;;;;;7381351;19;20304;-76
2024/03/12 11:00:25;;;;;;;23.15;9.88;;;13.80;99.90;;;;;;7399168;19;20223;-75
2024/03/12 11:02:55;;;;;;;29.05;10.13;;;13.80;99.90;;;;;;7377741;19;20074;-75
2024/03/12 11:05:25;;;;;;;24.83;10.43;;;13.80;99.90;;;;;;7378003;19;20392;-76
2024/03/12 11:07:54;;;;;;;22.20;10.52;;;13.80;99.90;;;;;;7378016;19;20375;-75
2024/03/12 11:10:24;;;;;;;31.33;10.45;;;13.80;99.90;;;;;;7379662;19;20007;-78
2024/03/12 11:12:54;;;;;;;22.17;10.80;;;13.90;99.90;;;;;;7379152;19;20270;-75
2024/03/12 11:15:25;;;;;;;26.35;11.52;;;13.90;99.90;;;;;;7397648;19;20024;-75
2024/03/12 11:17:55;;;;;;;26.65;11.75;;;13.80;99.90;;;;;;7377181;19;20684;-76
2024/03/12 11:20:26;;;;;;;30.90;13.05;;;13.80;99.90;;;;;;7378174;19;20055;-75
2024/03/12 11:23:00;;;;;;;25.38;12.80;;;13.80;99.90;;;;;;7378120;19;20417;-76
2024/03/12 11:25:32;;;;;;;30.63;12.23;;;13.80;99.90;;;;;;7377805;19;20216;-76
2024/03/12 11:28:20;;;;;;;32.72;12.63;;;13.80;99.90;;;;;;7378192;19;20290;-75
2024/03/12 11:31:02;;;;;;;23.77;12.25;;;13.70;99.90;;;;;;7399417;19;20014;-76
2024/03/12 11:33:45;;;;;;;25.33;11.65;;;13.70;99.90;;;;;;7377415;19;20443;-76
2024/03/12 11:36:23;;;;;;;24.60;11.60;;;13.70;99.90;;;;;;7377867;19;20013;-75
2024/03/12 11:38:54;;;;;;;28.38;12.23;;;13.70;99.90;;;;;;7377069;19;20015;-75
2024/03/12 11:41:47;;;;;;;30.55;13.23;;;13.70;99.90;;;;;;7376810;19;20354;-77
2024/03/12 11:44:47;;;;;;;28.35;13.13;;;13.70;99.90;;;;;;7377684;19;20023;-75
2024/03/12 11:47:36;;;;;;;27.55;13.00;;;13.70;99.90;;;;;;7377686;19;20022;-79
2024/03/12 11:50:26;;;;;;;27.70;12.15;;;13.70;99.90;;;;;;7377154;19;20092;-76
2024/03/12 11:52:55;;;;;;;28.08;11.15;;;13.70;99.90;;;;;;7377265;19;20017;-76
2024/03/12 11:55:55;;;;;;;22.52;10.77;;;13.70;99.90;;;;;;7376783;19;20097;-77
2024/03/12 11:58:27;;;;;;;27.73;9.90;;;13.50;99.90;;;;;;7377046;19;20022;-76
2024/03/12 12:00:56;;;;;;;21.35;9.43;;;13.50;99.90;;;;;;7377250;19;20023;-77
2024/03/12 12:03:28;;;;;;;21.60;8.80;;;13.40;99.90;;;;;;7396625;19;20588;-77
2024/03/12 12:05:56;;;;;;;;;;;13.40;99.90;;;;;;7377977;19;20010;-78
2024/03/12 12:08:27;;;;;;;17.95;8.23;;;13.30;99.90;;;;;;7377717;19;19907;-77
2024/03/12 12:11:00;;;;;;;19.90;8.77;;;13.40;99.90;;;;;;7380386;19;20370;-78
2024/03/12 12:13:29;;;;;;;22.20;8.48;;;13.40;99.90;;;;;;7376796;19;20306;-74
2024/03/12 12:16:02;;;;;;;18.00;7.97;;;13.50;99.90;;;;;;7374645;19;20027;-76
2024/03/12 12:18:34;;;;;;;13.48;8.15;;;13.50;99.90;;;;;;7396283;19;20024;-77
2024/03/12 12:21:06;;;;;;;16.20;8.40;;;13.30;99.90;;;;;;7373199;19;20007;-75
2024/03/12 12:23:35;;;;;;;23.70;7.22;;;13.30;99.90;;;;;;7372609;19;20103;-76
2024/03/12 12:26:06;;;;;;;13.50;7.75;;;13.10;99.90;;;;;;7373589;19;20256;-76
2024/03/12 12:28:35;;;;;;;15.23;6.97;;;13.20;99.90;;;;;;7375426;19;20002;-75
2024/03/12 12:31:05;;;;;;;16.05;8.43;;;13.20;99.90;;;;;;7374678;19;20018;-76
2024/03/12 12:33:38;;;;;;;18.00;7.72;;;13.10;99.90;;;;;;7396099;19;20545;-75
2024/03/12 12:36:13;;;;;;;12.07;7.10;;;13.10;99.90;;;;;;7372435;19;20079;-75
2024/03/12 12:38:42;;;;;;;13.77;7.40;;;13.20;99.90;;;;;;7374293;19;20003;-76
2024/03/12 12:41:11;;;;;;;16.23;7.80;;;13.40;99.90;;;;;;7375038;19;20052;-76
2024/03/12 12:43:42;;;;;;;15.77;8.52;;;13.50;99.90;;;;;;7374515;19;20020;-77
2024/03/12 12:46:16;;;;;;;12.68;7.15;;;13.60;99.90;;;;;;7374988;19;20279;-75
2024/03/12 12:48:50;;;;;;;16.83;7.57;;;13.70;99.90;;;;;;7396152;19;20035;-76
2024/03/12 12:51:20;;;;;;;16.25;7.28;;;13.70;99.90;;;;;;7374076;19;20007;-75
2024/03/12 12:53:48;;;;;;;14.93;8.10;;;13.70;99.90;;;;;;7374098;19;20028;-76